Time;durP1;ratioP1;P1;durP2;ratioP2;P2;SDS_P1;SDS_P2;PMS_P1;PMS_P2;Temp;Humidity;BMP_temperature;BMP_pressure;BME280_temperature;BME280_humidity;BME280_pressure;Samples;Min_cycle;Max_cycle;Signal;HPM_P1;HPM_P2
2021/06/08 00:01:02;;;;;;;0.90;0.90;;;16.60;99.90;;;;;;4990650;28;20217;-76
2021/06/08 00:03:28;;;;;;;0.85;0.85;;;16.60;99.90;;;;;;4990187;28;20484;-75
2021/06/08 00:05:55;;;;;;;0.90;0.90;;;16.60;99.90;;;;;;4986507;28;20695;-76
2021/06/08 00:08:22;;;;;;;0.90;0.90;;;16.60;99.90;;;;;;4990301;28;20679;-76
2021/06/08 00:10:49;;;;;;;0.85;0.85;;;16.60;99.90;;;;;;4990826;28;20220;-76
2021/06/08 00:13:15;;;;;;;2.17;1.05;;;16.60;99.90;;;;;;4987000;28;20204;-76
2021/06/08 00:15:42;;;;;;;0.98;0.98;;;16.60;99.90;;;;;;4989266;28;20218;-76
2021/06/08 00:18:10;;;;;;;0.90;0.90;;;16.60;99.90;;;;;;4977835;28;20626;-76
2021/06/08 00:20:37;;;;;;;0.98;0.98;;;16.60;99.90;;;;;;4971077;28;20221;-76
2021/06/08 00:23:03;;;;;;;0.90;0.90;;;16.60;99.90;;;;;;4982119;28;20588;-75
2021/06/08 00:25:30;;;;;;;1.25;0.90;;;16.60;99.90;;;;;;4961868;28;20281;-75
2021/06/08 00:27:57;;;;;;;1.00;1.00;;;16.60;99.90;;;;;;4978425;28;20203;-76
2021/06/08 00:30:25;;;;;;;0.90;0.90;;;16.60;99.90;;;;;;4970077;28;20218;-76
2021/06/08 00:32:51;;;;;;;0.80;0.80;;;16.60;99.90;;;;;;4979371;28;20207;-75
2021/06/08 00:35:19;;;;;;;0.98;0.98;;;16.60;99.90;;;;;;4986064;28;20213;-77
2021/06/08 00:37:46;;;;;;;0.73;0.65;;;16.60;99.90;;;;;;4995251;28;20575;-75
2021/06/08 00:40:13;;;;;;;1.00;1.00;;;16.60;99.90;;;;;;4989633;28;20221;-76
2021/06/08 00:42:40;;;;;;;1.02;1.02;;;16.60;99.90;;;;;;4990348;28;20212;-77
2021/06/08 00:45:09;;;;;;;0.93;0.93;;;16.60;99.90;;;;;;4992541;28;20754;-75
2021/06/08 00:47:36;;;;;;;0.90;0.90;;;16.60;99.90;;;;;;4996391;28;20204;-75
2021/06/08 00:50:02;;;;;;;1.00;1.00;;;16.60;99.90;;;;;;4990926;28;20256;-76
2021/06/08 00:52:30;;;;;;;0.98;0.98;;;16.60;99.90;;;;;;4991104;28;20209;-77
2021/06/08 00:54:57;;;;;;;0.90;0.90;;;16.60;99.90;;;;;;4992091;28;20582;-75
2021/06/08 00:57:24;;;;;;;1.05;1.05;;;16.60;99.90;;;;;;4998251;28;20200;-76
2021/06/08 00:59:50;;;;;;;0.80;0.80;;;16.60;99.90;;;;;;5002269;28;20262;-78
2021/06/08 01:02:17;;;;;;;1.27;1.17;;;16.50;99.90;;;;;;5003607;28;20583;-76
2021/06/08 01:04:44;;;;;;;0.90;0.90;;;16.50;99.90;;;;;;4995852;28;20227;-75
2021/06/08 01:07:10;;;;;;;0.90;0.90;;;16.50;99.90;;;;;;4990994;28;20726;-76
2021/06/08 01:09:38;;;;;;;1.90;1.05;;;16.50;99.90;;;;;;5002626;28;20216;-75
2021/06/08 01:12:05;;;;;;;1.65;1.25;;;16.50;99.90;;;;;;4995537;28;20200;-76
2021/06/08 01:14:32;;;;;;;1.98;1.00;;;16.50;99.90;;;;;;5001723;28;20197;-76
2021/06/08 01:16:59;;;;;;;1.15;1.15;;;16.50;99.90;;;;;;5002242;28;20197;-78
2021/06/08 01:19:25;;;;;;;1.67;1.02;;;16.50;99.90;;;;;;4999134;28;20227;-75
2021/06/08 01:21:54;;;;;;;1.10;1.10;;;16.50;99.90;;;;;;4995679;28;20359;-80
2021/06/08 01:24:20;;;;;;;1.05;1.05;;;16.50;99.90;;;;;;4990172;28;20232;-77
2021/06/08 01:26:47;;;;;;;0.88;0.88;;;16.50;99.90;;;;;;4993798;28;20286;-75
2021/06/08 01:29:14;;;;;;;1.00;1.00;;;16.50;99.90;;;;;;4990928;28;20225;-76
2021/06/08 01:31:42;;;;;;;1.05;1.05;;;16.50;99.90;;;;;;4991590;28;20227;-77
2021/06/08 01:34:08;;;;;;;1.00;1.00;;;16.40;99.90;;;;;;4989704;28;20189;-75
2021/06/08 01:36:39;;;;;;;1.08;1.00;;;16.40;99.90;;;;;;4987458;28;20217;-74
2021/06/08 01:39:08;;;;;;;1.00;1.00;;;16.40;99.90;;;;;;4996694;28;20473;-75
2021/06/08 01:41:38;;;;;;;0.70;0.70;;;16.40;99.90;;;;;;4987809;28;20256;-74
2021/06/08 01:44:05;;;;;;;0.80;0.80;;;16.50;99.90;;;;;;4993493;28;20233;-78
2021/06/08 01:46:32;;;;;;;1.00;1.00;;;16.50;99.90;;;;;;5006446;28;20236;-77
2021/06/08 01:48:59;;;;;;;1.13;1.13;;;16.50;99.90;;;;;;4997625;28;20648;-75
2021/06/08 01:51:36;;;;;;;0.98;0.98;;;16.50;99.90;;;;;;4990680;28;20457;-77
2021/06/08 01:54:10;;;;;;;1.40;1.30;;;16.50;99.90;;;;;;4991029;28;20197;-76
2021/06/08 01:56:40;;;;;;;1.23;1.05;;;16.40;99.90;;;;;;5002101;28;20710;-76
2021/06/08 01:59:16;;;;;;;1.20;1.20;;;16.40;99.90;;;;;;4995837;28;20279;-75
2021/06/08 02:01:53;;;;;;;0.93;0.93;;;16.40;99.90;;;;;;4998243;28;20224;-77
2021/06/08 02:04:27;;;;;;;0.90;0.90;;;16.40;99.90;;;;;;5000479;28;20212;-76
2021/06/08 02:07:11;;;;;;;1.08;1.08;;;16.30;99.90;;;;;;5001210;28;20716;-76
2021/06/08 02:09:47;;;;;;;1.00;1.00;;;16.30;99.90;;;;;;5002419;28;20745;-77
2021/06/08 02:12:18;;;;;;;1.05;1.05;;;16.30;99.90;;;;;;5003005;28;20297;-75
2021/06/08 02:14:49;;;;;;;1.33;1.20;;;16.30;99.90;;;;;;5002562;28;20197;-76
2021/06/08 02:17:21;;;;;;;0.73;0.73;;;16.30;99.90;;;;;;4976168;28;20690;-76
2021/06/08 02:19:50;;;;;;;0.90;0.90;;;16.30;99.90;;;;;;4980777;28;20232;-77
2021/06/08 02:22:21;;;;;;;1.10;1.10;;;16.30;99.90;;;;;;4980084;28;20222;-76
2021/06/08 02:24:50;;;;;;;1.15;1.10;;;16.30;99.90;;;;;;4980463;28;20276;-76
2021/06/08 02:27:19;;;;;;;1.27;1.20;;;16.30;99.90;;;;;;4994030;28;20221;-78
2021/06/08 02:29:49;;;;;;;1.25;1.25;;;16.30;99.90;;;;;;4983991;28;20282;-78
2021/06/08 02:32:31;;;;;;;1.20;1.10;;;16.30;99.90;;;;;;4957981;28;20226;-79
2021/06/08 02:35:00;;;;;;;0.90;0.90;;;16.20;99.90;;;;;;4992771;28;20189;-78
2021/06/08 02:37:27;;;;;;;1.17;1.17;;;16.20;99.90;;;;;;5008969;28;20228;-81
2021/06/08 02:39:57;;;;;;;1.13;1.13;;;16.20;99.90;;;;;;5000807;28;20221;-78
2021/06/08 02:42:24;;;;;;;1.02;1.02;;;16.20;99.90;;;;;;4998412;28;20221;-76
2021/06/08 02:44:52;;;;;;;1.00;1.00;;;16.20;99.90;;;;;;5001958;28;20298;-77
2021/06/08 02:47:20;;;;;;;1.10;1.10;;;16.20;99.90;;;;;;4986117;28;20693;-77
2021/06/08 02:49:48;;;;;;;1.15;1.15;;;16.20;99.90;;;;;;4977749;28;20700;-76
2021/06/08 02:52:16;;;;;;;1.25;1.17;;;16.20;99.90;;;;;;4977989;28;20244;-77
2021/06/08 02:54:43;;;;;;;1.20;1.15;;;16.20;99.90;;;;;;4981456;28;20595;-76
2021/06/08 02:57:12;;;;;;;0.93;0.93;;;16.20;99.90;;;;;;4983472;28;20244;-76
2021/06/08 02:59:39;;;;;;;1.55;1.15;;;16.20;99.90;;;;;;4979432;28;20227;-76
2021/06/08 03:02:11;;;;;;;2.25;1.45;;;16.20;99.90;;;;;;4977323;28;20221;-77
2021/06/08 03:04:46;;;;;;;1.17;1.17;;;16.20;99.90;;;;;;4978984;28;20217;-79
2021/06/08 03:07:14;;;;;;;1.20;1.20;;;16.20;99.90;;;;;;4975750;28;20244;-79
2021/06/08 03:09:48;;;;;;;1.10;1.10;;;16.10;99.90;;;;;;4988919;28;20251;-76
2021/06/08 03:12:19;;;;;;;1.05;1.05;;;16.10;99.90;;;;;;4985883;28;20586;-77
2021/06/08 03:14:48;;;;;;;1.00;1.00;;;16.10;99.90;;;;;;4983270;28;20189;-78
2021/06/08 03:17:16;;;;;;;1.20;1.20;;;16.10;99.90;;;;;;4990379;28;20225;-77
2021/06/08 03:19:46;;;;;;;1.60;1.20;;;16.10;99.90;;;;;;4979024;28;20237;-77
2021/06/08 03:22:17;;;;;;;1.20;1.20;;;16.10;99.90;;;;;;4976137;28;20225;-76
2021/06/08 03:24:47;;;;;;;1.27;1.20;;;16.10;99.90;;;;;;4974314;28;20209;-78
2021/06/08 03:27:16;;;;;;;0.88;0.88;;;16.10;99.90;;;;;;4984473;28;20336;-76
2021/06/08 03:29:43;;;;;;;0.90;0.90;;;16.20;99.90;;;;;;4974718;28;20286;-78
2021/06/08 03:32:11;;;;;;;1.10;1.10;;;16.20;99.90;;;;;;4987522;28;20248;-77
2021/06/08 03:34:39;;;;;;;1.10;1.10;;;16.20;99.90;;;;;;4986562;28;20704;-77
2021/06/08 03:37:06;;;;;;;0.90;0.90;;;16.10;99.90;;;;;;4996898;28;20224;-79
2021/06/08 03:39:34;;;;;;;1.15;1.15;;;16.20;99.90;;;;;;4977529;28;20225;-78
2021/06/08 03:42:03;;;;;;;1.25;1.25;;;16.20;99.90;;;;;;4976251;28;20273;-80
2021/06/08 03:44:34;;;;;;;1.30;1.23;;;16.20;99.90;;;;;;4981738;28;20244;-76
2021/06/08 03:47:00;;;;;;;1.20;1.20;;;16.20;99.90;;;;;;4986958;28;20562;-76
2021/06/08 03:49:27;;;;;;;1.08;1.08;;;16.30;99.90;;;;;;4983735;28;20218;-75
2021/06/08 03:51:55;;;;;;;1.30;1.20;;;16.30;99.90;;;;;;4975227;28;20229;-78
2021/06/08 03:54:22;;;;;;;1.48;1.38;;;16.40;99.90;;;;;;4983271;28;20205;-75
2021/06/08 03:56:52;;;;;;;1.40;1.30;;;16.60;99.90;;;;;;4980384;28;20239;-78
2021/06/08 03:59:22;;;;;;;1.27;1.17;;;16.60;99.90;;;;;;4972509;28;20226;-75
2021/06/08 04:01:52;;;;;;;1.45;1.30;;;16.60;99.90;;;;;;4973481;28;20232;-75
2021/06/08 04:04:19;;;;;;;1.45;1.35;;;16.60;99.90;;;;;;4976649;28;20228;-75
2021/06/08 04:06:47;;;;;;;1.15;1.13;;;16.70;99.90;;;;;;4978620;28;20600;-76
2021/06/08 04:09:13;;;;;;;1.75;1.60;;;16.70;99.90;;;;;;4991043;28;20224;-79
2021/06/08 04:11:42;;;;;;;1.35;1.25;;;16.70;99.90;;;;;;4991265;28;20221;-74
2021/06/08 04:14:10;;;;;;;1.50;1.40;;;16.80;99.90;;;;;;4992803;28;20311;-74
2021/06/08 04:16:38;;;;;;;1.25;1.25;;;16.80;99.90;;;;;;4995681;28;20227;-75
2021/06/08 04:19:10;;;;;;;1.33;1.23;;;16.80;99.90;;;;;;4993288;28;20223;-75
2021/06/08 04:21:37;;;;;;;1.30;1.20;;;16.80;99.90;;;;;;4990625;28;20304;-76
2021/06/08 04:24:06;;;;;;;1.50;1.40;;;16.80;99.90;;;;;;4986430;28;20205;-74
2021/06/08 04:26:34;;;;;;;1.58;1.40;;;16.90;99.90;;;;;;4989710;28;20595;-74
2021/06/08 04:29:01;;;;;;;1.17;1.17;;;16.80;99.90;;;;;;4989011;28;20225;-75
2021/06/08 04:31:28;;;;;;;1.60;1.50;;;16.80;99.90;;;;;;4990037;28;20225;-76
2021/06/08 04:33:54;;;;;;;1.60;1.40;;;16.80;99.90;;;;;;4986631;28;20205;-74
2021/06/08 04:36:24;;;;;;;1.67;1.58;;;16.80;99.90;;;;;;4988634;28;20205;-74
2021/06/08 04:38:52;;;;;;;1.42;1.38;;;16.80;99.90;;;;;;4988060;28;20229;-74
2021/06/08 04:41:19;;;;;;;1.50;1.40;;;16.80;99.90;;;;;;4990071;28;20193;-74
2021/06/08 04:43:46;;;;;;;1.30;1.30;;;16.80;99.90;;;;;;4987573;28;20201;-73
2021/06/08 04:46:14;;;;;;;2.08;1.50;;;16.80;99.90;;;;;;4993707;28;20224;-75
2021/06/08 04:48:42;;;;;;;1.20;1.20;;;16.90;99.90;;;;;;4991741;28;20244;-76
2021/06/08 04:51:09;;;;;;;1.65;1.55;;;16.90;99.90;;;;;;4986625;28;20202;-75
2021/06/08 04:53:38;;;;;;;1.48;1.38;;;17.00;99.90;;;;;;4971780;28;20263;-74
2021/06/08 04:56:06;;;;;;;1.60;1.50;;;17.00;99.90;;;;;;4970157;28;20203;-74
2021/06/08 04:58:33;;;;;;;1.70;1.60;;;17.10;99.90;;;;;;4990617;28;20304;-75
2021/06/08 05:01:06;;;;;;;1.30;1.20;;;17.00;99.90;;;;;;4990570;28;20200;-74
2021/06/08 05:03:39;;;;;;;1.60;1.50;;;17.10;99.90;;;;;;4989996;28;20224;-74
2021/06/08 05:06:12;;;;;;;2.65;1.20;;;17.20;99.90;;;;;;4997968;28;20224;-74
2021/06/08 05:08:48;;;;;;;1.95;1.40;;;17.30;99.90;;;;;;5000735;28;20255;-73
2021/06/08 05:11:16;;;;;;;1.30;1.25;;;17.40;99.90;;;;;;4993232;28;20200;-72
2021/06/08 05:13:46;;;;;;;1.52;1.42;;;17.50;99.90;;;;;;4989506;28;20617;-73
2021/06/08 05:16:14;;;;;;;1.70;1.60;;;17.50;99.90;;;;;;4983387;28;20256;-74
2021/06/08 05:18:43;;;;;;;1.20;1.20;;;17.50;99.90;;;;;;4976845;28;20371;-74
2021/06/08 05:21:11;;;;;;;2.13;1.45;;;17.50;99.90;;;;;;4986017;28;20915;-73
2021/06/08 05:23:40;;;;;;;1.50;1.40;;;17.50;99.90;;;;;;4991900;28;20328;-73
2021/06/08 05:26:07;;;;;;;1.48;1.38;;;17.50;99.90;;;;;;4999768;28;20212;-74
2021/06/08 05:28:35;;;;;;;1.67;1.58;;;17.50;99.90;;;;;;4991628;28;20232;-73
2021/06/08 05:31:02;;;;;;;1.38;1.30;;;17.50;99.90;;;;;;4992068;28;20201;-73
2021/06/08 05:33:28;;;;;;;3.20;1.42;;;17.60;99.90;;;;;;4993801;28;20220;-74
2021/06/08 05:35:56;;;;;;;1.60;1.50;;;17.60;99.90;;;;;;5000063;28;20196;-73
2021/06/08 05:38:30;;;;;;;1.65;1.55;;;17.60;99.90;;;;;;4997105;28;20221;-73
2021/06/08 05:41:03;;;;;;;1.70;1.60;;;17.50;99.90;;;;;;4992368;28;20566;-73
2021/06/08 05:43:29;;;;;;;2.72;1.50;;;17.60;99.90;;;;;;4988267;28;20232;-74
2021/06/08 05:45:56;;;;;;;1.90;1.80;;;17.60;99.90;;;;;;4994623;28;20699;-73
2021/06/08 05:48:24;;;;;;;2.15;1.73;;;17.70;99.90;;;;;;4984476;28;20221;-74
2021/06/08 05:50:54;;;;;;;1.98;1.50;;;17.70;99.90;;;;;;4988423;28;20200;-73
2021/06/08 05:53:21;;;;;;;1.73;1.63;;;17.70;99.90;;;;;;4989330;28;20219;-72
2021/06/08 05:55:50;;;;;;;1.75;1.65;;;17.70;99.90;;;;;;5004211;28;20251;-72
2021/06/08 05:58:23;;;;;;;1.50;1.40;;;17.90;99.90;;;;;;4993237;28;20220;-73
2021/06/08 06:00:50;;;;;;;1.77;1.67;;;17.90;99.90;;;;;;4988074;28;20687;-73
2021/06/08 06:03:18;;;;;;;1.70;1.60;;;18.00;99.90;;;;;;4988660;28;20232;-72
2021/06/08 06:05:47;;;;;;;2.63;1.60;;;18.40;99.90;;;;;;4990822;28;20229;-72
2021/06/08 06:08:14;;;;;;;3.63;1.80;;;18.70;99.90;;;;;;4985088;28;20216;-73
2021/06/08 06:10:41;;;;;;;2.97;1.60;;;19.10;99.90;;;;;;4988419;28;20258;-73
2021/06/08 06:13:08;;;;;;;2.13;1.85;;;19.30;99.90;;;;;;4983312;28;20874;-73
2021/06/08 06:15:37;;;;;;;4.50;1.80;;;19.30;99.90;;;;;;4984338;28;20201;-72
2021/06/08 06:18:04;;;;;;;2.72;2.00;;;19.10;99.90;;;;;;4990413;28;20287;-73
2021/06/08 06:20:31;;;;;;;1.90;1.80;;;18.90;99.90;;;;;;4987768;28;20233;-73
2021/06/08 06:22:58;;;;;;;1.98;1.88;;;18.80;99.90;;;;;;4988649;28;20739;-73
2021/06/08 06:25:25;;;;;;;2.05;1.90;;;18.70;99.90;;;;;;4997280;28;20220;-73
2021/06/08 06:27:52;;;;;;;3.13;1.65;;;18.80;99.90;;;;;;4996450;28;20699;-73
2021/06/08 06:30:19;;;;;;;2.08;1.95;;;18.90;99.90;;;;;;4992658;28;20220;-72
2021/06/08 06:32:47;;;;;;;1.88;1.77;;;18.90;99.90;;;;;;4988671;28;20587;-73
2021/06/08 06:35:14;;;;;;;1.70;1.60;;;19.20;99.90;;;;;;4988039;28;20237;-72
2021/06/08 06:37:41;;;;;;;1.60;1.50;;;19.50;99.90;;;;;;4988073;28;20225;-73
2021/06/08 06:40:13;;;;;;;1.90;1.80;;;19.60;99.90;;;;;;4984217;28;20217;-72
2021/06/08 06:42:43;;;;;;;2.00;1.90;;;19.80;99.90;;;;;;4985446;28;20694;-73
2021/06/08 06:45:14;;;;;;;1.95;1.85;;;20.10;99.90;;;;;;4986729;28;20220;-72
2021/06/08 06:47:42;;;;;;;1.80;1.70;;;20.40;99.90;;;;;;4976260;28;20233;-72
2021/06/08 06:50:11;;;;;;;2.40;1.90;;;20.70;99.90;;;;;;4986342;28;21488;-73
2021/06/08 06:52:39;;;;;;;2.40;2.20;;;20.90;99.90;;;;;;4987329;28;20220;-70
2021/06/08 06:55:07;;;;;;;2.45;1.77;;;20.90;99.90;;;;;;4995886;28;20612;-72
2021/06/08 06:57:37;;;;;;;1.70;1.60;;;21.00;99.90;;;;;;4986541;28;20773;-73
2021/06/08 07:00:06;;;;;;;3.20;1.58;;;21.20;99.90;;;;;;4984904;28;20224;-71
2021/06/08 07:02:34;;;;;;;3.42;2.38;;;21.30;99.90;;;;;;4988621;28;20237;-73
2021/06/08 07:05:01;;;;;;;2.08;1.90;;;21.40;99.90;;;;;;4996554;28;20221;-73
2021/06/08 07:07:30;;;;;;;8.40;2.45;;;21.50;99.90;;;;;;4994592;28;20224;-72
2021/06/08 07:09:57;;;;;;;2.50;2.30;;;21.40;99.90;;;;;;4987589;28;20236;-73
2021/06/08 07:12:24;;;;;;;2.13;2.03;;;21.20;99.90;;;;;;4986332;28;20240;-72
2021/06/08 07:14:51;;;;;;;4.05;2.30;;;21.10;99.90;;;;;;4985571;28;20233;-72
2021/06/08 07:17:20;;;;;;;3.28;2.40;;;21.10;99.90;;;;;;4991412;28;20225;-73
2021/06/08 07:19:48;;;;;;;2.67;2.47;;;21.10;99.90;;;;;;4989707;28;20221;-73
2021/06/08 07:22:15;;;;;;;3.50;2.60;;;21.10;99.90;;;;;;4988829;28;20299;-73
2021/06/08 07:24:44;;;;;;;2.60;2.40;;;21.20;99.90;;;;;;4979361;28;20325;-73
2021/06/08 07:27:13;;;;;;;3.75;2.22;;;21.20;99.90;;;;;;4988612;28;20255;-72
2021/06/08 07:29:40;;;;;;;2.70;2.50;;;21.10;99.90;;;;;;4988131;28;20216;-72
2021/06/08 07:32:15;;;;;;;3.08;2.55;;;20.90;99.90;;;;;;4978070;28;20229;-72
2021/06/08 07:34:48;;;;;;;3.05;2.50;;;20.80;99.90;;;;;;4981317;28;20203;-74
2021/06/08 07:37:20;;;;;;;2.90;2.63;;;20.90;99.90;;;;;;4980124;28;20228;-71
2021/06/08 07:39:51;;;;;;;2.80;2.08;;;21.20;99.90;;;;;;4983394;28;20225;-71
2021/06/08 07:42:24;;;;;;;2.60;2.35;;;21.40;99.90;;;;;;4983480;28;20224;-73
2021/06/08 07:44:52;;;;;;;2.50;2.30;;;21.50;99.90;;;;;;4981024;28;20213;-73
2021/06/08 07:47:21;;;;;;;2.50;2.30;;;21.50;99.90;;;;;;4983074;28;20228;-73
2021/06/08 07:49:50;;;;;;;2.35;2.15;;;21.40;99.90;;;;;;4980895;28;20721;-73
2021/06/08 07:52:19;;;;;;;3.05;2.60;;;21.20;99.90;;;;;;4978178;28;20224;-69
2021/06/08 07:54:48;;;;;;;2.00;1.90;;;21.00;99.90;;;;;;4987059;28;20201;-69
2021/06/08 07:57:15;;;;;;;2.00;1.90;;;20.90;99.90;;;;;;4978074;28;20224;-69
2021/06/08 07:59:42;;;;;;;3.85;2.25;;;20.90;99.90;;;;;;4979175;28;20253;-69
2021/06/08 08:02:10;;;;;;;2.67;2.13;;;20.90;99.90;;;;;;4976707;28;20235;-71
2021/06/08 08:04:39;;;;;;;4.00;2.20;;;21.00;99.90;;;;;;4977970;28;20598;-70
2021/06/08 08:07:06;;;;;;;3.00;2.65;;;20.90;99.90;;;;;;4983024;28;20196;-71
2021/06/08 08:09:36;;;;;;;3.47;2.80;;;21.00;99.90;;;;;;4984449;28;20631;-71
2021/06/08 08:12:06;;;;;;;2.53;2.33;;;21.00;99.90;;;;;;4997704;28;20185;-71
2021/06/08 08:14:33;;;;;;;6.45;2.50;;;21.10;99.90;;;;;;4987212;28;20209;-71
2021/06/08 08:17:00;;;;;;;3.90;2.60;;;21.10;99.90;;;;;;4988281;28;20707;-72
2021/06/08 08:19:27;;;;;;;3.80;3.03;;;21.00;99.90;;;;;;4981966;28;20225;-71
2021/06/08 08:21:53;;;;;;;3.08;2.72;;;21.00;99.90;;;;;;4982652;28;20197;-71
2021/06/08 08:24:20;;;;;;;3.17;2.88;;;21.00;99.90;;;;;;4983314;28;20212;-71
2021/06/08 08:26:47;;;;;;;3.20;2.88;;;21.00;99.90;;;;;;4987054;28;20217;-71
2021/06/08 08:29:15;;;;;;;3.05;2.55;;;21.10;99.90;;;;;;4986726;28;20223;-70
2021/06/08 08:31:42;;;;;;;2.80;2.60;;;21.10;99.90;;;;;;4984320;28;20204;-70
2021/06/08 08:34:08;;;;;;;2.80;2.60;;;21.20;99.90;;;;;;4986002;28;20225;-72
2021/06/08 08:36:38;;;;;;;5.70;2.63;;;21.20;99.90;;;;;;4981501;28;20291;-70
2021/06/08 08:39:07;;;;;;;2.95;2.75;;;21.30;99.90;;;;;;4988023;28;20233;-71
2021/06/08 08:41:34;;;;;;;3.45;2.47;;;21.40;99.90;;;;;;4981672;28;20696;-68
2021/06/08 08:44:01;;;;;;;2.60;2.40;;;21.40;99.90;;;;;;4988431;28;20221;-72
2021/06/08 08:46:29;;;;;;;4.93;2.90;;;21.50;99.90;;;;;;4982352;28;20221;-73
2021/06/08 08:48:57;;;;;;;2.78;2.58;;;21.60;99.90;;;;;;4989324;28;20316;-72
2021/06/08 08:51:25;;;;;;;3.15;2.90;;;21.60;99.90;;;;;;4983527;28;20243;-73
2021/06/08 08:53:54;;;;;;;3.08;2.78;;;21.60;99.90;;;;;;4983084;28;20229;-73
2021/06/08 08:56:23;;;;;;;3.35;3.05;;;21.50;99.90;;;;;;4982437;28;20201;-72
2021/06/08 08:58:50;;;;;;;3.97;3.25;;;21.50;99.90;;;;;;4985940;28;20236;-71
2021/06/08 09:01:17;;;;;;;3.22;2.80;;;21.50;99.90;;;;;;4986220;28;20206;-71
2021/06/08 09:03:46;;;;;;;3.00;2.80;;;21.70;99.90;;;;;;4987905;28;20229;-71
2021/06/08 09:06:13;;;;;;;3.97;2.75;;;21.80;99.90;;;;;;4985610;28;20212;-71
2021/06/08 09:08:40;;;;;;;4.75;3.10;;;21.90;99.90;;;;;;4984589;28;20294;-73
2021/06/08 09:11:08;;;;;;;3.97;3.42;;;22.10;99.90;;;;;;4989490;28;20684;-72
2021/06/08 09:13:34;;;;;;;3.00;2.70;;;22.20;99.90;;;;;;4983123;28;20224;-71
2021/06/08 09:16:04;;;;;;;3.13;2.92;;;22.20;99.90;;;;;;4988008;28;20213;-72
2021/06/08 09:18:30;;;;;;;2.67;2.47;;;22.30;99.90;;;;;;4981705;28;20279;-71
2021/06/08 09:21:11;;;;;;;4.82;2.60;;;22.80;99.90;;;;;;4989362;28;20203;-71
2021/06/08 09:23:38;;;;;;;3.80;3.40;;;23.20;99.90;;;;;;4983889;28;20225;-72
2021/06/08 09:26:05;;;;;;;3.13;2.92;;;23.30;99.90;;;;;;4986755;28;21014;-71
2021/06/08 09:28:33;;;;;;;3.70;3.00;;;23.20;99.90;;;;;;4984423;28;20228;-71
2021/06/08 09:31:06;;;;;;;3.25;3.00;;;23.00;99.90;;;;;;4979596;28;20215;-72
2021/06/08 09:33:35;;;;;;;2.80;2.60;;;22.90;99.90;;;;;;4982980;28;20220;-70
2021/06/08 09:36:06;;;;;;;3.65;2.80;;;22.90;99.90;;;;;;4986739;28;20283;-71
2021/06/08 09:38:38;;;;;;;3.60;2.92;;;23.00;99.90;;;;;;4984422;28;20278;-71
2021/06/08 09:41:14;;;;;;;3.10;2.90;;;23.20;99.90;;;;;;4986673;28;20211;-71
2021/06/08 09:43:57;;;;;;;4.75;3.65;;;23.30;99.90;;;;;;4980160;28;20223;-71
2021/06/08 09:46:27;;;;;;;2.63;2.42;;;23.00;99.90;;;;;;4983213;28;20646;-69
2021/06/08 09:48:56;;;;;;;3.65;3.35;;;23.10;99.90;;;;;;4985361;28;20228;-71
2021/06/08 09:51:25;;;;;;;3.47;2.92;;;22.90;99.90;;;;;;4983195;28;20200;-70
2021/06/08 09:53:52;;;;;;;2.90;2.60;;;22.70;99.90;;;;;;4987929;28;20216;-71
2021/06/08 09:56:20;;;;;;;4.07;3.30;;;22.70;99.90;;;;;;4985068;28;20209;-72
2021/06/08 09:58:48;;;;;;;2.88;2.67;;;22.70;99.90;;;;;;4982346;28;21235;-71
2021/06/08 10:01:23;;;;;;;3.40;3.10;;;22.60;99.90;;;;;;4982893;28;20198;-69
2021/06/08 10:03:52;;;;;;;3.03;2.83;;;22.60;99.90;;;;;;4985834;28;20240;-71
2021/06/08 10:06:21;;;;;;;2.92;2.72;;;22.50;99.90;;;;;;4978422;28;20213;-70
2021/06/08 10:08:57;;;;;;;3.22;2.92;;;22.40;99.90;;;;;;4983438;28;20293;-71
2021/06/08 10:11:26;;;;;;;3.53;3.15;;;22.50;99.90;;;;;;4981727;28;20201;-71
2021/06/08 10:13:58;;;;;;;3.00;2.80;;;22.50;99.90;;;;;;4979223;28;20230;-71
2021/06/08 10:16:29;;;;;;;3.00;2.80;;;22.40;99.90;;;;;;4989885;28;20591;-70
2021/06/08 10:18:56;;;;;;;2.65;2.50;;;22.50;99.90;;;;;;4981769;28;20239;-71
2021/06/08 10:21:36;;;;;;;3.53;2.78;;;22.50;99.90;;;;;;4980962;28;20201;-71
2021/06/08 10:24:06;;;;;;;2.70;2.50;;;22.60;99.90;;;;;;4981805;28;20359;-71
2021/06/08 10:26:35;;;;;;;2.50;2.30;;;22.70;99.90;;;;;;4981328;28;20235;-70
2021/06/08 10:29:07;;;;;;;3.20;3.00;;;22.80;99.90;;;;;;4975228;28;20226;-71
2021/06/08 10:31:35;;;;;;;3.35;3.08;;;22.90;99.90;;;;;;4980307;28;20339;-72
2021/06/08 10:34:04;;;;;;;3.10;2.90;;;22.90;99.90;;;;;;4977061;28;20220;-71
2021/06/08 10:36:32;;;;;;;3.55;3.05;;;22.90;99.90;;;;;;4982309;28;20197;-72
2021/06/08 10:38:59;;;;;;;3.00;2.80;;;22.90;99.90;;;;;;4982229;28;20232;-71
2021/06/08 10:41:28;;;;;;;3.05;2.80;;;23.00;99.90;;;;;;4988547;28;20620;-70
2021/06/08 10:43:55;;;;;;;3.15;2.85;;;23.10;99.90;;;;;;4989066;28;20216;-71
2021/06/08 10:46:29;;;;;;;2.80;2.60;;;23.10;99.90;;;;;;4993109;28;20213;-69
2021/06/08 10:48:56;;;;;;;3.13;2.90;;;23.30;99.90;;;;;;4980398;28;20252;-70
2021/06/08 10:51:24;;;;;;;2.80;2.60;;;23.30;99.90;;;;;;4980558;28;20770;-71
2021/06/08 10:53:53;;;;;;;3.45;2.58;;;23.40;99.90;;;;;;4988476;28;20275;-71
2021/06/08 10:56:23;;;;;;;4.78;3.10;;;23.40;99.90;;;;;;4987245;28;20213;-69
2021/06/08 10:58:52;;;;;;;2.88;2.60;;;23.10;99.90;;;;;;4982400;28;20222;-70
2021/06/08 11:01:44;;;;;;;2.80;2.30;;;23.00;99.90;;;;;;4983282;28;20209;-71
2021/06/08 11:04:13;;;;;;;3.00;2.80;;;23.10;99.90;;;;;;4987990;28;20364;-71
2021/06/08 11:06:55;;;;;;;2.63;2.42;;;23.20;99.90;;;;;;4983670;28;20809;-71
2021/06/08 11:09:36;;;;;;;3.72;2.63;;;23.30;99.90;;;;;;4984760;28;20236;-71
2021/06/08 11:12:20;;;;;;;2.58;2.30;;;23.30;99.90;;;;;;4981358;28;20264;-71
2021/06/08 11:15:00;;;;;;;2.85;2.65;;;23.30;99.90;;;;;;4987754;28;20984;-70
2021/06/08 11:17:41;;;;;;;3.20;2.90;;;23.10;99.90;;;;;;4980265;28;20686;-70
2021/06/08 11:20:22;;;;;;;3.80;3.15;;;23.00;99.90;;;;;;4983863;28;20236;-71
2021/06/08 11:23:09;;;;;;;3.45;2.70;;;22.90;99.90;;;;;;4976935;28;20290;-72
2021/06/08 11:25:51;;;;;;;3.05;2.70;;;22.90;99.90;;;;;;4980707;28;20229;-72
2021/06/08 11:28:18;;;;;;;2.70;2.50;;;22.90;99.90;;;;;;4979935;28;20334;-73
2021/06/08 11:30:57;;;;;;;5.03;3.03;;;22.90;99.90;;;;;;4979205;28;20201;-71
2021/06/08 11:33:29;;;;;;;2.80;2.60;;;22.80;99.90;;;;;;4970091;28;20217;-71
2021/06/08 11:35:56;;;;;;;5.22;2.90;;;22.70;99.90;;;;;;4966129;28;21064;-72
2021/06/08 11:38:33;;;;;;;2.88;2.67;;;22.70;99.90;;;;;;4964048;28;20228;-72
2021/06/08 11:41:10;;;;;;;3.28;2.97;;;22.70;99.90;;;;;;4968494;28;20230;-71
2021/06/08 11:44:02;;;;;;;3.78;2.80;;;22.80;99.90;;;;;;4963795;28;20229;-73
2021/06/08 11:46:50;;;;;;;3.92;2.85;;;22.90;99.90;;;;;;4943300;28;20222;-73
2021/06/08 11:49:18;;;;;;;2.80;2.60;;;23.00;99.90;;;;;;4957394;28;20249;-73
2021/06/08 11:51:48;;;;;;;3.03;2.72;;;23.10;99.90;;;;;;4960571;28;20201;-73
2021/06/08 11:54:20;;;;;;;3.10;2.75;;;23.20;99.90;;;;;;4957813;28;20229;-74
2021/06/08 11:56:52;;;;;;;2.47;2.28;;;23.30;99.90;;;;;;4961292;28;20198;-72
2021/06/08 11:59:21;;;;;;;2.58;2.38;;;23.40;99.90;;;;;;4959587;28;20221;-72
2021/06/08 12:01:52;;;;;;;2.20;2.10;;;23.40;99.90;;;;;;4957485;28;20198;-73
2021/06/08 12:04:19;;;;;;;2.47;2.28;;;23.40;99.90;;;;;;4961314;28;20232;-72
2021/06/08 12:07:07;;;;;;;2.42;2.30;;;23.50;99.90;;;;;;4957290;28;20715;-71
2021/06/08 12:09:45;;;;;;;2.72;2.30;;;23.50;99.90;;;;;;4952762;28;20234;-71
2021/06/08 12:12:14;;;;;;;2.25;2.15;;;23.60;99.90;;;;;;4954250;28;20197;-72
2021/06/08 12:14:50;;;;;;;2.55;2.35;;;23.60;99.90;;;;;;4960019;28;20410;-72
2021/06/08 12:17:18;;;;;;;5.00;2.95;;;23.50;99.90;;;;;;4956717;28;20207;-70
2021/06/08 12:19:45;;;;;;;2.90;2.70;;;23.40;99.90;;;;;;4960134;28;20230;-70
2021/06/08 12:22:20;;;;;;;2.90;2.70;;;23.30;99.90;;;;;;4958009;28;20204;-73
2021/06/08 12:24:56;;;;;;;3.00;2.65;;;23.40;99.90;;;;;;4960406;28;20224;-72
2021/06/08 12:27:35;;;;;;;3.00;2.70;;;23.30;99.90;;;;;;4957262;28;20197;-72
2021/06/08 12:30:03;;;;;;;2.22;2.03;;;23.30;99.90;;;;;;4958328;28;20221;-72
2021/06/08 12:32:31;;;;;;;2.47;2.28;;;23.40;99.90;;;;;;4958290;28;20636;-72
2021/06/08 12:34:58;;;;;;;3.30;2.55;;;23.50;99.90;;;;;;4964389;28;20269;-73
2021/06/08 12:37:26;;;;;;;2.40;2.20;;;23.50;99.90;;;;;;4958261;28;20208;-72
2021/06/08 12:39:54;;;;;;;2.33;2.22;;;23.60;99.90;;;;;;4981697;28;20233;-74
2021/06/08 12:42:21;;;;;;;2.25;2.10;;;23.70;99.90;;;;;;4979390;28;20201;-72
2021/06/08 12:44:49;;;;;;;2.47;2.28;;;23.80;99.90;;;;;;4979481;28;20221;-73
2021/06/08 12:47:17;;;;;;;2.25;2.15;;;24.00;99.90;;;;;;4979797;28;20304;-73
2021/06/08 12:49:46;;;;;;;2.60;2.40;;;24.10;99.90;;;;;;4974266;28;20331;-72
2021/06/08 12:52:16;;;;;;;2.25;2.15;;;24.30;99.90;;;;;;4976148;28;20213;-74
2021/06/08 12:54:44;;;;;;;2.95;2.75;;;24.40;99.90;;;;;;4979437;28;20225;-71
2021/06/08 12:57:13;;;;;;;2.90;2.65;;;24.40;99.90;;;;;;4978637;28;20914;-73
2021/06/08 12:59:43;;;;;;;2.53;2.33;;;24.30;99.90;;;;;;4974483;28;20257;-73